TimePST,TemperatureF,Dew PointF,Humidity,Sea Level PressureIn,VisibilityMPH,Wind Direction,Wind SpeedMPH,Gust SpeedMPH,PrecipitationIn,Events,Conditions,WindDirDegrees,DateUTC
12:53 AM,44.1,39.0,82,30.08,10.0,SSE,9.2,-,N/A,,Overcast,160,2013-02-22 08:53:00
1:53 AM,44.1,39.0,82,30.08,10.0,SSE,9.2,-,0.00,Rain,Light Rain,160,2013-02-22 09:53:00
2:32 AM,42.8,39.2,87,30.05,9.0,South,10.4,-,0.01,Rain,Light Rain,170,2013-02-22 10:32:00
2:53 AM,43.0,39.0,86,30.06,6.0,SSE,8.1,-,0.03,Rain,Light Rain,150,2013-02-22 10:53:00
3:03 AM,42.8,39.2,87,30.05,6.0,SSE,9.2,-,0.02,Rain,Light Rain,160,2013-02-22 11:03:00
3:53 AM,43.0,39.0,86,30.03,10.0,SSE,9.2,-,0.02,,Overcast,150,2013-02-22 11:53:00
4:53 AM,42.1,39.0,89,29.99,10.0,SE,9.2,-,0.00,Rain,Light Rain,130,2013-02-22 12:53:00
5:23 AM,42.8,39.2,87,29.97,8.0,SE,8.1,-,0.00,,Overcast,140,2013-02-22 13:23:00
5:30 AM,42.8,39.2,87,29.96,10.0,ESE,5.8,-,0.00,,Overcast,120,2013-02-22 13:30:00
5:53 AM,42.1,39.0,89,29.96,9.0,SE,5.8,-,0.00,Rain,Light Rain,140,2013-02-22 13:53:00
6:43 AM,42.8,39.2,87,29.90,10.0,SE,8.1,-,0.00,,Overcast,140,2013-02-22 14:43:00
6:53 AM,44.1,37.9,79,29.91,10.0,SE,9.2,18.4,0.00,,Overcast,130,2013-02-22 14:53:00
7:53 AM,44.1,39.0,82,29.89,9.0,SE,6.9,-,0.01,Rain,Light Rain,140,2013-02-22 15:53:00
8:35 AM,44.6,39.2,81,29.87,4.0,SSE,6.9,-,0.02,Rain,Light Rain,150,2013-02-22 16:35:00
8:53 AM,44.1,41.0,89,29.88,3.0,SSE,8.1,-,0.04,Rain,Light Rain,160,2013-02-22 16:53:00
9:35 AM,44.6,39.2,81,29.85,5.0,South,13.8,21.9,0.06,Rain,Light Rain,170,2013-02-22 17:35:00
9:53 AM,44.1,39.9,85,29.85,6.0,SSE,12.7,18.4,0.07,Rain,Light Rain,160,2013-02-22 17:53:00
10:53 AM,44.1,39.9,85,29.83,4.0,SSE,16.1,24.2,0.05,Rain,Light Rain,160,2013-02-22 18:53:00
11:53 AM,44.1,39.9,85,29.79,7.0,SSE,13.8,27.6,0.07,Rain,Light Rain,150,2013-02-22 19:53:00
12:53 PM,45.0,39.9,82,29.78,7.0,SSE,15.0,25.3,0.01,Rain,Light Rain,160,2013-02-22 20:53:00
1:53 PM,46.0,39.9,79,29.74,10.0,South,18.4,29.9,0.02,,Overcast,170,2013-02-22 21:53:00
2:53 PM,45.0,41.0,86,29.75,3.0,South,13.8,23.0,0.01,Rain,Light Rain,170,2013-02-22 22:53:00
3:53 PM,45.0,41.0,86,29.75,10.0,SSE,12.7,18.4,0.00,,Overcast,160,2013-02-22 23:53:00
4:53 PM,46.0,37.0,71,29.76,10.0,South,16.1,28.8,0.02,,Clear,180,2013-02-23 00:53:00
5:53 PM,44.1,36.0,73,29.77,10.0,South,16.1,25.3,N/A,,Clear,180,2013-02-23 01:53:00
6:53 PM,42.1,34.0,73,29.80,10.0,South,11.5,20.7,N/A,,Clear,190,2013-02-23 02:53:00
7:42 PM,42.8,33.8,70,29.80,10.0,South,13.8,24.2,N/A,,Mostly Cloudy,190,2013-02-23 03:42:00
7:53 PM,42.1,34.0,73,29.83,10.0,South,12.7,21.9,N/A,,Mostly Cloudy,190,2013-02-23 03:53:00
8:08 PM,41.0,33.8,76,29.82,10.0,South,10.4,18.4,N/A,,Scattered Clouds,170,2013-02-23 04:08:00
8:53 PM,41.0,33.1,73,29.85,10.0,South,9.2,21.9,N/A,,Partly Cloudy,180,2013-02-23 04:53:00
9:53 PM,41.0,34.0,76,29.88,10.0,South,11.5,19.6,N/A,,Scattered Clouds,190,2013-02-23 05:53:00
10:53 PM,41.0,33.1,73,29.91,10.0,SE,9.2,18.4,N/A,,Scattered Clouds,140,2013-02-23 06:53:00
11:00 PM,39.2,33.8,81,29.90,10.0,SSE,6.9,-,N/A,,Mostly Cloudy,150,2013-02-23 07:00:00
11:53 PM,39.9,34.0,79,29.93,10.0,SSE,6.9,-,N/A,,Overcast,150,2013-02-23 07:53:00